createdAt,value
2022-09-06T00:01:57.869Z,62.9
2022-09-06T00:13:57.874Z,65.3
2022-09-06T00:25:57.942Z,64.0
2022-09-06T00:37:57.893Z,62.7
2022-09-06T00:49:57.855Z,71.4
2022-09-06T01:01:58.887Z,71.9
2022-09-06T01:13:57.872Z,69.8
2022-09-06T01:25:57.879Z,70.7
2022-09-06T01:37:57.870Z,71.3
2022-09-06T01:49:57.892Z,73.7
2022-09-06T02:01:57.975Z,72.9
2022-09-06T02:13:57.835Z,75.8
2022-09-06T02:25:57.893Z,77.1
2022-09-06T02:37:57.882Z,78.8
2022-09-06T02:49:57.879Z,80.1
2022-09-06T03:01:57.941Z,80.3
2022-09-06T03:13:57.857Z,80.3
2022-09-06T03:25:57.873Z,83.0
2022-09-06T03:37:57.855Z,84.2
2022-09-06T03:49:57.893Z,85.0
2022-09-06T04:01:57.880Z,86.1
2022-09-06T04:13:57.844Z,86.4
2022-09-06T04:25:57.853Z,88.7
2022-09-06T04:37:57.866Z,89.9
2022-09-06T04:49:57.885Z,91.3
2022-09-06T05:01:57.915Z,90.3
2022-09-06T05:13:57.844Z,90.0
2022-09-06T05:25:57.863Z,84.1
2022-09-06T05:37:57.853Z,81.3
2022-09-06T05:49:57.897Z,79.6
2022-09-06T06:01:57.947Z,71.6
2022-09-06T06:13:57.842Z,71.5
2022-09-06T06:25:57.868Z,62.9
2022-09-06T06:37:57.867Z,67.1
2022-09-06T06:49:57.884Z,62.6
2022-09-06T07:01:57.918Z,69.0
2022-09-06T07:13:57.864Z,68.0
2022-09-06T07:25:57.886Z,66.9
2022-09-06T07:37:57.864Z,65.1
2022-09-06T08:01:59.191Z,60.2
2022-09-06T08:13:57.991Z,58.0
2022-09-06T08:25:57.930Z,52.4
2022-09-06T08:37:57.919Z,59.7
2022-09-06T08:49:57.940Z,59.9
2022-09-06T09:01:58.009Z,53.0
2022-09-06T09:13:57.924Z,54.8
2022-09-06T09:25:57.902Z,53.3
2022-09-06T09:38:04.956Z,52.4
2022-09-06T09:49:57.882Z,49.9
2022-09-06T10:01:57.866Z,52.8
2022-09-06T10:13:57.860Z,49.9
2022-09-06T10:25:57.888Z,43.7
2022-09-06T10:37:57.824Z,49.8
2022-09-06T10:49:57.925Z,49.5
2022-09-06T11:01:58.054Z,49.0
2022-09-06T11:14:00.486Z,42.5
2022-09-06T11:25:57.865Z,44.5
2022-09-06T11:37:57.841Z,45.7
2022-09-06T11:49:57.884Z,43.9
2022-09-06T12:01:57.845Z,41.1
2022-09-06T12:13:58.417Z,42.3
2022-09-06T12:25:57.868Z,39.3
2022-09-06T12:37:57.871Z,41.1
2022-09-06T12:49:57.872Z,40.1
2022-09-06T13:01:57.969Z,44.1
2022-09-06T13:13:58.086Z,45.7
2022-09-06T13:25:57.862Z,76.6
2022-09-06T13:37:57.883Z,92.4
2022-09-06T13:49:57.895Z,85.2
2022-09-06T14:01:57.903Z,58.4
2022-09-06T14:13:57.875Z,68.0
2022-09-06T14:25:57.829Z,65.5
2022-09-06T14:37:57.859Z,66.6
2022-09-06T14:49:57.878Z,77.6
2022-09-06T15:01:57.999Z,69.4
2022-09-06T15:13:57.882Z,62.2
2022-09-06T15:25:57.874Z,56.5
2022-09-06T15:37:57.867Z,53.5
2022-09-06T15:49:57.901Z,48.3
2022-09-06T16:01:57.994Z,57.7
2022-09-06T16:13:57.865Z,54.9
2022-09-06T16:25:58.010Z,57.1
2022-09-06T16:37:57.859Z,57.5
2022-09-06T16:49:57.895Z,63.4
2022-09-06T17:01:58.075Z,64.9
2022-09-06T17:13:57.869Z,67.7
2022-09-06T17:25:57.882Z,67.5
2022-09-06T17:37:57.877Z,68.0
2022-09-06T17:49:58.317Z,66.8
2022-09-06T18:01:57.970Z,68.2
2022-09-06T18:13:57.856Z,68.4
2022-09-06T18:25:57.864Z,67.8
2022-09-06T18:37:57.892Z,68.2
2022-09-06T18:49:57.886Z,69.3
2022-09-06T19:01:57.997Z,71.6
2022-09-06T19:13:57.831Z,72.0
2022-09-06T19:25:57.867Z,69.8
2022-09-06T19:37:57.855Z,72.6
2022-09-06T19:49:57.878Z,70.0
2022-09-06T20:01:57.882Z,77.2
2022-09-06T20:13:57.880Z,80.5
2022-09-06T20:25:57.844Z,69.4
2022-09-06T20:37:57.864Z,67.4
2022-09-06T20:49:57.888Z,79.2
2022-09-06T21:01:57.932Z,80.3
2022-09-06T21:13:57.860Z,81.1
2022-09-06T21:25:57.857Z,73.5
2022-09-06T21:37:57.912Z,71.7
2022-09-06T21:49:57.876Z,75.9
2022-09-06T22:01:57.898Z,75.8
2022-09-06T22:13:57.873Z,78.8
2022-09-06T22:25:57.848Z,80.9
2022-09-06T22:37:57.867Z,77.7
2022-09-06T22:49:57.855Z,80.6
2022-09-06T23:01:57.879Z,82.4
2022-09-06T23:13:57.838Z,77.0
2022-09-06T23:25:57.876Z,73.4
2022-09-06T23:37:57.881Z,74.0
2022-09-06T23:49:57.875Z,72.4
